sensor_id;sensor_type;location;lat;lon;timestamp;temperature;humidity
66150;DHT22;52952;50.904;20.648;2022-07-01T00:07:03;25;81
66150;DHT22;52952;50.904;20.648;2022-07-01T00:14:06;25;81
66150;DHT22;52952;50.904;20.648;2022-07-01T00:21:05;25;81
66150;DHT22;52952;50.904;20.648;2022-07-01T00:28:16;25;81
66150;DHT22;52952;50.904;20.648;2022-07-01T00:42:16;25;83
66150;DHT22;52952;50.904;20.648;2022-07-01T00:49:04;25;83
66150;DHT22;52952;50.904;20.648;2022-07-01T00:56:03;25;83
66150;DHT22;52952;50.904;20.648;2022-07-01T01:00:18;25;83
66150;DHT22;52952;50.904;20.648;2022-07-01T01:07:17;25;77
66150;DHT22;52952;50.904;20.648;2022-07-01T01:14:03;25;77
66150;DHT22;52952;50.904;20.648;2022-07-01T01:21:15;25;77
66150;DHT22;52952;50.904;20.648;2022-07-01T01:28:16;25;77
66150;DHT22;52952;50.904;20.648;2022-07-01T01:35:14;25;77
66150;DHT22;52952;50.904;20.648;2022-07-01T01:42:15;25;77
66150;DHT22;52952;50.904;20.648;2022-07-01T01:49:23;25;77
66150;DHT22;52952;50.904;20.648;2022-07-01T01:56:16;25;77
66150;DHT22;52952;50.904;20.648;2022-07-01T02:00:13;25;77
66150;DHT22;52952;50.904;20.648;2022-07-01T02:07:02;25;78
66150;DHT22;52952;50.904;20.648;2022-07-01T02:14:07;25;78
66150;DHT22;52952;50.904;20.648;2022-07-01T02:21:04;25;78
66150;DHT22;52952;50.904;20.648;2022-07-01T02:28:07;25;78
66150;DHT22;52952;50.904;20.648;2022-07-01T02:35:20;24;79
66150;DHT22;52952;50.904;20.648;2022-07-01T02:42:49;24;79
66150;DHT22;52952;50.904;20.648;2022-07-01T02:49:04;24;79
66150;DHT22;52952;50.904;20.648;2022-07-01T02:56:03;24;79
66150;DHT22;52952;50.904;20.648;2022-07-01T03:00:26;24;79
66150;DHT22;52952;50.904;20.648;2022-07-01T03:07:02;24;81
66150;DHT22;52952;50.904;20.648;2022-07-01T03:14:02;24;81
66150;DHT22;52952;50.904;20.648;2022-07-01T03:21:03;24;81
66150;DHT22;52952;50.904;20.648;2022-07-01T03:28:05;24;81
66150;DHT22;52952;50.904;20.648;2022-07-01T03:35:03;23;82
66150;DHT22;52952;50.904;20.648;2022-07-01T03:42:23;23;82
66150;DHT22;52952;50.904;20.648;2022-07-01T03:49:21;23;82
66150;DHT22;52952;50.904;20.648;2022-07-01T03:56:13;23;82
66150;DHT22;52952;50.904;20.648;2022-07-01T04:00:18;23;82
66150;DHT22;52952;50.904;20.648;2022-07-01T04:07:04;23;84
66150;DHT22;52952;50.904;20.648;2022-07-01T04:14:04;23;84
66150;DHT22;52952;50.904;20.648;2022-07-01T04:28:03;23;84
66150;DHT22;52952;50.904;20.648;2022-07-01T04:42:03;23;85
66150;DHT22;52952;50.904;20.648;2022-07-01T04:49:03;23;85
66150;DHT22;52952;50.904;20.648;2022-07-01T04:56:17;23;85
66150;DHT22;52952;50.904;20.648;2022-07-01T05:00:06;23;85
66150;DHT22;52952;50.904;20.648;2022-07-01T05:07:31;22;86
66150;DHT22;52952;50.904;20.648;2022-07-01T05:14:13;22;86
66150;DHT22;52952;50.904;20.648;2022-07-01T05:28:04;22;86
66150;DHT22;52952;50.904;20.648;2022-07-01T05:35:05;22;86
66150;DHT22;52952;50.904;20.648;2022-07-01T05:42:03;22;86
66150;DHT22;52952;50.904;20.648;2022-07-01T05:49:06;22;86
66150;DHT22;52952;50.904;20.648;2022-07-01T05:56:16;22;86
66150;DHT22;52952;50.904;20.648;2022-07-01T06:00:16;22;86
66150;DHT22;52952;50.904;20.648;2022-07-01T06:07:06;23;85
66150;DHT22;52952;50.904;20.648;2022-07-01T06:14:17;23;85
66150;DHT22;52952;50.904;20.648;2022-07-01T06:21:17;23;85
66150;DHT22;52952;50.904;20.648;2022-07-01T06:28:17;23;85
66150;DHT22;52952;50.904;20.648;2022-07-01T06:35:03;22;86
66150;DHT22;52952;50.904;20.648;2022-07-01T06:42:16;22;86
66150;DHT22;52952;50.904;20.648;2022-07-01T06:49:07;22;86
66150;DHT22;52952;50.904;20.648;2022-07-01T06:56:19;22;86
66150;DHT22;52952;50.904;20.648;2022-07-01T07:00:06;22;86
66150;DHT22;52952;50.904;20.648;2022-07-01T07:07:04;22;87
66150;DHT22;52952;50.904;20.648;2022-07-01T07:14:02;22;87
66150;DHT22;52952;50.904;20.648;2022-07-01T07:21:04;22;87
66150;DHT22;52952;50.904;20.648;2022-07-01T07:28:16;22;87
66150;DHT22;52952;50.904;20.648;2022-07-01T07:35:17;22;88
66150;DHT22;52952;50.904;20.648;2022-07-01T07:42:03;22;88
66150;DHT22;52952;50.904;20.648;2022-07-01T07:49:19;22;88
66150;DHT22;52952;50.904;20.648;2022-07-01T07:56:04;22;88
66150;DHT22;52952;50.904;20.648;2022-07-01T08:00:07;22;88
66150;DHT22;52952;50.904;20.648;2022-07-01T08:07:04;22;88
66150;DHT22;52952;50.904;20.648;2022-07-01T08:14:17;22;88
66150;DHT22;52952;50.904;20.648;2022-07-01T08:21:02;22;88
66150;DHT22;52952;50.904;20.648;2022-07-01T08:28:17;22;88
66150;DHT22;52952;50.904;20.648;2022-07-01T08:42:09;22;88
66150;DHT22;52952;50.904;20.648;2022-07-01T08:49:25;22;88
66150;DHT22;52952;50.904;20.648;2022-07-01T09:00:10;22;88
66150;DHT22;52952;50.904;20.648;2022-07-01T09:14:16;22;88
66150;DHT22;52952;50.904;20.648;2022-07-01T09:21:31;22;88
66150;DHT22;52952;50.904;20.648;2022-07-01T09:28:18;22;88
66150;DHT22;52952;50.904;20.648;2022-07-01T09:42:04;22;89
66150;DHT22;52952;50.904;20.648;2022-07-01T09:49:02;22;89
66150;DHT22;52952;50.904;20.648;2022-07-01T09:56:07;22;89
66150;DHT22;52952;50.904;20.648;2022-07-01T10:00:23;22;89
66150;DHT22;52952;50.904;20.648;2022-07-01T10:14:31;22;89
66150;DHT22;52952;50.904;20.648;2022-07-01T10:21:32;22;89
66150;DHT22;52952;50.904;20.648;2022-07-01T10:42:18;22;89
66150;DHT22;52952;50.904;20.648;2022-07-01T10:49:19;22;89
66150;DHT22;52952;50.904;20.648;2022-07-01T10:56:18;22;89
66150;DHT22;52952;50.904;20.648;2022-07-01T11:00:47;22;89
66150;DHT22;52952;50.904;20.648;2022-07-01T11:14:15;22;90
66150;DHT22;52952;50.904;20.648;2022-07-01T11:21:13;22;90
66150;DHT22;52952;50.904;20.648;2022-07-01T11:28:16;22;90
66150;DHT22;52952;50.904;20.648;2022-07-01T11:42:27;22;91
66150;DHT22;52952;50.904;20.648;2022-07-01T11:49:16;22;91
66150;DHT22;52952;50.904;20.648;2022-07-01T11:56:35;22;91
66150;DHT22;52952;50.904;20.648;2022-07-01T12:00:20;22;91
66150;DHT22;52952;50.904;20.648;2022-07-01T12:14:28;23;88
66150;DHT22;52952;50.904;20.648;2022-07-01T12:21:07;23;88
66150;DHT22;52952;50.904;20.648;2022-07-01T12:28:37;23;88
66150;DHT22;52952;50.904;20.648;2022-07-01T12:35:41;23;88
66150;DHT22;52952;50.904;20.648;2022-07-01T12:42:30;23;87
66150;DHT22;52952;50.904;20.648;2022-07-01T12:49:02;23;87
66150;DHT22;52952;50.904;20.648;2022-07-01T12:56:24;23;87
66150;DHT22;52952;50.904;20.648;2022-07-01T13:00:04;23;87
66150;DHT22;52952;50.904;20.648;2022-07-01T13:14:17;24;86
66150;DHT22;52952;50.904;20.648;2022-07-01T13:21:15;24;86
66150;DHT22;52952;50.904;20.648;2022-07-01T13:28:03;24;86
66150;DHT22;52952;50.904;20.648;2022-07-01T13:35:14;24;86
66150;DHT22;52952;50.904;20.648;2022-07-01T13:42:09;24;87
66150;DHT22;52952;50.904;20.648;2022-07-01T13:49:22;24;87
66150;DHT22;52952;50.904;20.648;2022-07-01T13:56:17;24;87
66150;DHT22;52952;50.904;20.648;2022-07-01T14:00:24;24;87
66150;DHT22;52952;50.904;20.648;2022-07-01T14:07:05;24;87
66150;DHT22;52952;50.904;20.648;2022-07-01T14:14:19;24;89
66150;DHT22;52952;50.904;20.648;2022-07-01T14:21:14;24;89
66150;DHT22;52952;50.904;20.648;2022-07-01T14:28:18;24;89
66150;DHT22;52952;50.904;20.648;2022-07-01T14:35:17;24;89
66150;DHT22;52952;50.904;20.648;2022-07-01T14:42:17;25;88
66150;DHT22;52952;50.904;20.648;2022-07-01T14:49:04;25;88
66150;DHT22;52952;50.904;20.648;2022-07-01T14:56:03;25;88
66150;DHT22;52952;50.904;20.648;2022-07-01T15:00:16;25;88
66150;DHT22;52952;50.904;20.648;2022-07-01T15:14:14;25;86
66150;DHT22;52952;50.904;20.648;2022-07-01T15:21:19;25;86
66150;DHT22;52952;50.904;20.648;2022-07-01T15:28:03;25;86
66150;DHT22;52952;50.904;20.648;2022-07-01T15:35:06;25;86
66150;DHT22;52952;50.904;20.648;2022-07-01T15:42:04;25;84
66150;DHT22;52952;50.904;20.648;2022-07-01T15:49:22;25;84
66150;DHT22;52952;50.904;20.648;2022-07-01T15:56:17;25;84
66150;DHT22;52952;50.904;20.648;2022-07-01T16:00:04;25;84
66150;DHT22;52952;50.904;20.648;2022-07-01T16:07:32;25;84
66150;DHT22;52952;50.904;20.648;2022-07-01T16:14:03;26;82
66150;DHT22;52952;50.904;20.648;2022-07-01T16:21:03;26;82
66150;DHT22;52952;50.904;20.648;2022-07-01T16:28:07;26;82
66150;DHT22;52952;50.904;20.648;2022-07-01T16:35:15;26;82
66150;DHT22;52952;50.904;20.648;2022-07-01T16:42:15;23;88
66150;DHT22;52952;50.904;20.648;2022-07-01T16:49:33;23;88
66150;DHT22;52952;50.904;20.648;2022-07-01T16:56:17;23;88
66150;DHT22;52952;50.904;20.648;2022-07-01T17:00:22;23;88
66150;DHT22;52952;50.904;20.648;2022-07-01T17:07:08;23;88
66150;DHT22;52952;50.904;20.648;2022-07-01T17:14:18;21;97
66150;DHT22;52952;50.904;20.648;2022-07-01T17:21:06;21;97
66150;DHT22;52952;50.904;20.648;2022-07-01T17:35:27;21;97
66150;DHT22;52952;50.904;20.648;2022-07-01T17:42:04;22;97
66150;DHT22;52952;50.904;20.648;2022-07-01T17:49:29;22;97
66150;DHT22;52952;50.904;20.648;2022-07-01T17:56:09;22;97
66150;DHT22;52952;50.904;20.648;2022-07-01T18:00:15;22;97
66150;DHT22;52952;50.904;20.648;2022-07-01T18:07:04;22;97
66150;DHT22;52952;50.904;20.648;2022-07-01T18:14:32;23;93
66150;DHT22;52952;50.904;20.648;2022-07-01T18:21:23;23;93
66150;DHT22;52952;50.904;20.648;2022-07-01T18:28:36;23;93
66150;DHT22;52952;50.904;20.648;2022-07-01T18:35:31;23;93
66150;DHT22;52952;50.904;20.648;2022-07-01T18:49:02;25;89
66150;DHT22;52952;50.904;20.648;2022-07-01T18:56:16;25;89
66150;DHT22;52952;50.904;20.648;2022-07-01T19:00:01;25;89
66150;DHT22;52952;50.904;20.648;2022-07-01T19:07:17;25;89
66150;DHT22;52952;50.904;20.648;2022-07-01T19:21:15;25;87
66150;DHT22;52952;50.904;20.648;2022-07-01T19:28:16;25;87
66150;DHT22;52952;50.904;20.648;2022-07-01T19:35:04;25;87
66150;DHT22;52952;50.904;20.648;2022-07-01T19:49:05;25;86
66150;DHT22;52952;50.904;20.648;2022-07-01T19:56:02;25;86
66150;DHT22;52952;50.904;20.648;2022-07-01T20:00:28;25;86
66150;DHT22;52952;50.904;20.648;2022-07-01T20:07:15;25;86
66150;DHT22;52952;50.904;20.648;2022-07-01T20:21:06;25;82
66150;DHT22;52952;50.904;20.648;2022-07-01T20:28:14;25;82
66150;DHT22;52952;50.904;20.648;2022-07-01T20:35:20;25;82
66150;DHT22;52952;50.904;20.648;2022-07-01T20:49:04;26;78
66150;DHT22;52952;50.904;20.648;2022-07-01T20:56:16;26;78
66150;DHT22;52952;50.904;20.648;2022-07-01T21:00:06;26;78
66150;DHT22;52952;50.904;20.648;2022-07-01T21:07:19;26;78
66150;DHT22;52952;50.904;20.648;2022-07-01T21:21:03;24;70
66150;DHT22;52952;50.904;20.648;2022-07-01T21:28:03;24;70
66150;DHT22;52952;50.904;20.648;2022-07-01T21:35:08;24;70
66150;DHT22;52952;50.904;20.648;2022-07-01T21:49:24;26;78
66150;DHT22;52952;50.904;20.648;2022-07-01T21:56:08;26;78
66150;DHT22;52952;50.904;20.648;2022-07-01T22:00:36;26;78
66150;DHT22;52952;50.904;20.648;2022-07-01T22:07:04;26;78
66150;DHT22;52952;50.904;20.648;2022-07-01T22:14:31;25;83
66150;DHT22;52952;50.904;20.648;2022-07-01T22:21:20;25;83
66150;DHT22;52952;50.904;20.648;2022-07-01T22:28:21;25;83
66150;DHT22;52952;50.904;20.648;2022-07-01T22:35:10;25;85
66150;DHT22;52952;50.904;20.648;2022-07-01T22:42:22;25;85
66150;DHT22;52952;50.904;20.648;2022-07-01T22:49:25;25;85
66150;DHT22;52952;50.904;20.648;2022-07-01T22:56:29;25;85
66150;DHT22;52952;50.904;20.648;2022-07-01T23:00:04;25;85
66150;DHT22;52952;50.904;20.648;2022-07-01T23:07:08;24;85
66150;DHT22;52952;50.904;20.648;2022-07-01T23:21:06;24;85
66150;DHT22;52952;50.904;20.648;2022-07-01T23:28:22;24;85
66150;DHT22;52952;50.904;20.648;2022-07-01T23:35:08;24;85
66150;DHT22;52952;50.904;20.648;2022-07-01T23:42:05;24;85
66150;DHT22;52952;50.904;20.648;2022-07-01T23:49:02;24;85
66150;DHT22;52952;50.904;20.648;2022-07-01T23:56:19;24;85
